createdAt,value
2019-05-28T00:02:00.341Z,2.47
2019-05-28T00:07:07.002Z,1.77
2019-05-28T00:12:13.324Z,3.15
2019-05-28T00:17:19.823Z,2.55
2019-05-28T00:22:26.311Z,2.60
2019-05-28T00:27:32.043Z,2.00
2019-05-28T00:32:38.084Z,2.52
2019-05-28T00:37:44.524Z,2.47
2019-05-28T00:42:50.743Z,3.05
2019-05-28T00:47:56.745Z,2.67
2019-05-28T00:53:02.933Z,1.95
2019-05-28T00:58:08.693Z,2.98
2019-05-28T01:03:15.002Z,2.58
2019-05-28T01:08:21.492Z,3.25
2019-05-28T01:13:27.732Z,1.72
2019-05-28T01:18:34.335Z,2.37
2019-05-28T01:23:40.643Z,2.45
2019-05-28T01:28:46.954Z,1.62
2019-05-28T01:33:53.512Z,2.10
2019-05-28T01:38:59.919Z,2.00
2019-05-28T01:44:05.578Z,3.00
2019-05-28T01:49:12.216Z,1.80
2019-05-28T01:54:18.168Z,2.20
2019-05-28T01:59:23.896Z,1.65
2019-05-28T02:04:29.173Z,1.90
2019-05-28T02:09:34.506Z,1.92
2019-05-28T02:14:39.983Z,1.85
2019-05-28T02:19:46.325Z,2.30
2019-05-28T02:24:52.876Z,1.72
2019-05-28T02:29:58.663Z,2.42
2019-05-28T02:35:05.657Z,1.57
2019-05-28T02:40:11.290Z,2.12
2019-05-28T02:45:17.486Z,1.62
2019-05-28T02:50:47.976Z,1.80
2019-05-28T02:55:55.188Z,1.75
2019-05-28T03:01:00.939Z,1.72
2019-05-28T03:06:07.705Z,1.77
2019-05-28T03:11:13.515Z,1.70
2019-05-28T03:16:19.236Z,1.67
2019-05-28T03:21:24.976Z,1.72
2019-05-28T03:26:30.845Z,1.37
2019-05-28T03:31:36.446Z,1.85
2019-05-28T03:36:42.245Z,2.17
2019-05-28T03:41:48.766Z,1.40
2019-05-28T03:46:55.268Z,1.55
2019-05-28T03:52:01.028Z,1.52
2019-05-28T03:57:06.976Z,3.08
2019-05-28T04:02:23.085Z,1.40
2019-05-28T04:07:21.308Z,2.40
2019-05-28T04:12:27.086Z,1.37
2019-05-28T04:17:32.826Z,1.52
2019-05-28T04:22:39.435Z,2.45
2019-05-28T04:27:45.166Z,1.60
2019-05-28T04:32:50.925Z,2.05
2019-05-28T04:37:57.506Z,1.67
2019-05-28T04:43:04.022Z,1.80
2019-05-28T04:48:09.976Z,1.57
2019-05-28T04:53:15.895Z,1.50
2019-05-28T04:58:21.926Z,1.47
2019-05-28T05:03:27.536Z,1.82
2019-05-28T05:08:33.415Z,1.67
2019-05-28T05:13:39.184Z,1.60
2019-05-28T05:18:45.096Z,1.47
2019-05-28T05:23:50.891Z,2.52
2019-05-28T05:28:56.745Z,1.47
2019-05-28T05:34:03.029Z,1.55
2019-05-28T05:39:09.505Z,12.33
2019-05-28T05:44:15.975Z,6.47
2019-05-28T05:49:22.127Z,4.28
2019-05-28T05:54:29.035Z,3.20
2019-05-28T05:59:35.368Z,4.42
2019-05-28T06:04:41.636Z,4.72
2019-05-28T06:09:48.266Z,4.05
2019-05-28T06:14:54.154Z,5.55
2019-05-28T06:20:00.370Z,4.40
2019-05-28T06:25:07.579Z,5.75
2019-05-28T06:30:12.908Z,5.35
2019-05-28T06:35:19.014Z,4.78
2019-05-28T06:40:25.176Z,6.30
2019-05-28T06:45:30.876Z,5.03
2019-05-28T06:50:37.506Z,7.55
2019-05-28T06:55:43.958Z,2.92
2019-05-28T07:00:49.746Z,5.10
2019-05-28T07:06:07.383Z,7.22
2019-05-28T07:11:05.525Z,3.08
2019-05-28T07:16:11.996Z,2.22
2019-05-28T07:21:17.767Z,4.03
2019-05-28T07:26:23.448Z,5.17
2019-05-28T07:31:29.196Z,4.62
2019-05-28T07:36:35.785Z,3.00
2019-05-28T07:41:41.585Z,3.72
2019-05-28T07:46:48.066Z,2.70
2019-05-28T07:51:54.285Z,5.67
2019-05-28T07:57:00.836Z,4.28
2019-05-28T08:02:06.605Z,2.20
2019-05-28T08:07:12.827Z,3.45
2019-05-28T08:12:18.617Z,2.65
2019-05-28T08:17:24.886Z,3.83
2019-05-28T08:22:41.878Z,4.33
2019-05-28T08:27:37.562Z,2.42
2019-05-28T08:32:43.964Z,2.98
2019-05-28T08:37:50.262Z,2.45
2019-05-28T08:42:57.618Z,1.95
2019-05-28T08:48:03.729Z,3.50
2019-05-28T08:53:10.295Z,1.87
2019-05-28T08:58:16.834Z,1.60
2019-05-28T09:03:22.898Z,1.98
2019-05-28T09:08:47.766Z,4.15
2019-05-28T09:13:54.517Z,4.50
2019-05-28T09:19:01.485Z,6.42
2019-05-28T09:24:08.176Z,3.87
2019-05-28T09:29:14.577Z,4.60
2019-05-28T09:34:20.067Z,2.50
2019-05-28T09:39:25.789Z,5.92
2019-05-28T09:44:32.242Z,6.37
2019-05-28T09:49:37.977Z,10.60
2019-05-28T09:54:44.616Z,11.85
2019-05-28T09:59:50.942Z,9.68
2019-05-28T10:04:57.836Z,13.88
2019-05-28T10:10:04.205Z,9.15
2019-05-28T10:15:09.874Z,9.73
2019-05-28T10:20:17.054Z,8.88
2019-05-28T10:25:22.726Z,8.73
2019-05-28T10:30:28.357Z,11.05
2019-05-28T10:35:35.046Z,8.30
2019-05-28T10:40:41.426Z,9.33
2019-05-28T10:45:47.577Z,10.08
2019-05-28T10:50:54.106Z,8.35
2019-05-28T10:56:00.716Z,10.70
2019-05-28T11:01:06.740Z,10.32
2019-05-28T11:06:12.444Z,9.18
2019-05-28T11:11:19.070Z,7.45
2019-05-28T11:16:25.736Z,5.80
2019-05-28T11:21:32.405Z,11.35
2019-05-28T11:26:38.114Z,11.90
2019-05-28T11:31:44.206Z,10.10
2019-05-28T11:36:49.961Z,9.25
2019-05-28T11:41:56.107Z,6.78
2019-05-28T11:47:02.446Z,7.47
2019-05-28T11:52:09.423Z,12.23
2019-05-28T11:57:16.266Z,9.68
2019-05-28T12:02:22.318Z,6.22
2019-05-28T12:07:28.806Z,5.33
2019-05-28T12:12:35.989Z,8.73
2019-05-28T12:17:45.112Z,5.03
2019-05-28T12:23:06.664Z,5.20
2019-05-28T12:27:58.036Z,4.85
2019-05-28T12:33:03.784Z,5.30
2019-05-28T12:38:10.143Z,8.23
2019-05-28T12:43:16.567Z,4.42
2019-05-28T12:48:22.996Z,5.05
2019-05-28T12:53:48.132Z,2.95
2019-05-28T12:58:42.162Z,5.20
2019-05-28T13:03:44.946Z,3.67
2019-05-28T13:08:50.575Z,4.53
2019-05-28T13:13:56.617Z,2.72
2019-05-28T13:19:02.796Z,6.12
2019-05-28T13:24:09.215Z,2.62
2019-05-28T13:29:15.445Z,2.62
2019-05-28T13:34:21.934Z,5.47
2019-05-28T13:39:28.307Z,2.62
2019-05-28T13:44:34.355Z,2.35
2019-05-28T13:49:40.765Z,3.80
2019-05-28T13:54:47.106Z,3.37
2019-05-28T13:59:58.601Z,2.80
2019-05-28T14:05:01.645Z,2.70
2019-05-28T14:10:08.235Z,3.70
2019-05-28T14:15:14.136Z,2.70
2019-05-28T14:20:21.717Z,2.55
2019-05-28T14:25:28.274Z,3.83
2019-05-28T14:30:34.496Z,2.12
2019-05-28T14:35:40.566Z,1.62
2019-05-28T14:40:46.852Z,1.95
2019-05-28T14:45:53.296Z,2.52
2019-05-28T14:51:00.446Z,2.20
2019-05-28T14:56:06.715Z,2.60
2019-05-28T15:01:13.125Z,3.52
2019-05-28T15:06:19.816Z,2.40
2019-05-28T15:11:26.505Z,1.67
2019-05-28T15:16:32.896Z,2.55
2019-05-28T15:21:38.888Z,2.17
2019-05-28T15:26:45.356Z,1.98
2019-05-28T15:31:51.496Z,2.20
2019-05-28T15:36:57.866Z,1.47
2019-05-28T15:42:04.066Z,2.60
2019-05-28T15:47:10.410Z,3.55
2019-05-28T15:52:16.845Z,1.40
2019-05-28T15:57:24.034Z,2.85
2019-05-28T16:02:30.147Z,1.07
2019-05-28T16:07:36.448Z,1.92
2019-05-28T16:12:42.236Z,1.32
2019-05-28T16:17:48.315Z,1.30
2019-05-28T16:22:54.243Z,1.87
2019-05-28T16:28:01.141Z,2.00
2019-05-28T16:33:07.595Z,1.95
2019-05-28T16:38:15.796Z,3.10
2019-05-28T16:43:21.915Z,1.27
2019-05-28T16:48:27.725Z,2.02
2019-05-28T16:53:34.133Z,1.20
2019-05-28T16:58:40.815Z,5.25
2019-05-28T17:03:46.877Z,6.83
2019-05-28T17:08:53.225Z,3.83
2019-05-28T17:14:00.306Z,3.65
2019-05-28T17:19:06.859Z,2.83
2019-05-28T17:24:12.832Z,4.58
2019-05-28T17:29:18.932Z,4.03
2019-05-28T17:34:24.707Z,3.10
2019-05-28T17:39:31.036Z,5.55
2019-05-28T17:44:36.802Z,4.47
2019-05-28T17:49:43.326Z,3.52
2019-05-28T17:54:49.655Z,2.55
2019-05-28T17:59:55.917Z,2.17
2019-05-28T18:05:02.531Z,3.42
2019-05-28T18:10:08.526Z,3.98
2019-05-28T18:15:14.346Z,3.17
2019-05-28T18:20:20.926Z,2.83
2019-05-28T18:25:28.123Z,2.60
2019-05-28T18:30:33.832Z,1.95
2019-05-28T18:35:40.303Z,1.67
2019-05-28T18:40:46.132Z,2.22
2019-05-28T18:45:52.336Z,2.05
2019-05-28T18:50:58.326Z,2.95
2019-05-28T18:56:16.456Z,11.95
2019-05-28T19:01:13.017Z,15.50
2019-05-28T19:06:19.405Z,4.05
2019-05-28T19:11:37.434Z,6.50
2019-05-28T19:16:32.455Z,4.37
2019-05-28T19:21:39.275Z,8.88
2019-05-28T19:26:44.977Z,2.52
2019-05-28T19:31:51.366Z,4.45
2019-05-28T19:36:57.586Z,5.08
2019-05-28T19:42:04.155Z,4.83
2019-05-28T19:47:10.745Z,2.47
2019-05-28T19:52:16.567Z,2.17
2019-05-28T19:57:26.641Z,3.25
2019-05-28T20:02:34.175Z,4.92
2019-05-28T20:07:40.425Z,5.37
2019-05-28T20:12:46.126Z,2.08
2019-05-28T20:17:54.574Z,2.52
2019-05-28T20:23:02.315Z,3.98
2019-05-28T20:28:10.094Z,4.35
2019-05-28T20:33:16.602Z,3.10
2019-05-28T20:38:23.008Z,6.45
2019-05-28T20:43:29.535Z,2.65
2019-05-28T20:48:36.154Z,3.80
2019-05-28T20:53:42.045Z,2.45
2019-05-28T20:58:49.579Z,1.70
2019-05-28T21:03:55.979Z,2.85
2019-05-28T21:09:02.334Z,1.50
2019-05-28T21:14:08.726Z,3.92
2019-05-28T21:19:14.580Z,1.40
2019-05-28T21:24:20.350Z,3.40
2019-05-28T21:29:26.704Z,3.25
2019-05-28T21:34:32.650Z,1.35
2019-05-28T21:39:38.588Z,2.60
2019-05-28T21:44:44.306Z,2.65
2019-05-28T21:49:50.177Z,2.67
2019-05-28T21:54:57.186Z,3.17
2019-05-28T22:00:04.162Z,1.67
2019-05-28T22:05:10.885Z,2.67
2019-05-28T22:10:17.826Z,3.22
2019-05-28T22:15:24.347Z,2.08
2019-05-28T22:20:31.135Z,2.25
2019-05-28T22:25:38.355Z,1.60
2019-05-28T22:30:44.367Z,1.27
2019-05-28T22:35:50.591Z,1.57
2019-05-28T22:40:58.283Z,1.27
2019-05-28T22:46:05.328Z,1.12
2019-05-28T22:51:11.685Z,2.77
2019-05-28T22:56:18.489Z,1.47
2019-05-28T23:01:25.037Z,2.05
2019-05-28T23:06:31.564Z,2.20
2019-05-28T23:11:37.947Z,0.98
2019-05-28T23:16:44.324Z,1.27
2019-05-28T23:21:50.935Z,2.22
2019-05-28T23:26:56.956Z,1.65
2019-05-28T23:32:03.976Z,1.90
2019-05-28T23:37:10.998Z,3.65
2019-05-28T23:42:17.795Z,1.20
2019-05-28T23:47:23.414Z,1.10
2019-05-28T23:52:29.534Z,1.70
2019-05-28T23:57:36.361Z,1.35
